createdAt,value
2019-04-06T00:01:55.418Z,60.00
2019-04-06T00:04:27.080Z,58.43
2019-04-06T00:06:58.588Z,57.70
2019-04-06T00:09:30.107Z,56.57
2019-04-06T00:12:01.617Z,61.20
2019-04-06T00:14:34.728Z,60.80
2019-04-06T00:17:06.217Z,57.43
2019-04-06T00:19:39.032Z,55.63
2019-04-06T00:22:10.540Z,59.67
2019-04-06T00:24:43.154Z,57.07
2019-04-06T00:27:14.688Z,60.90
2019-04-06T00:29:46.276Z,57.40
2019-04-06T00:32:30.561Z,58.53
2019-04-06T00:35:02.035Z,58.23
2019-04-06T00:37:35.744Z,57.60
2019-04-06T00:40:08.045Z,60.30
2019-04-06T00:42:39.542Z,60.20
2019-04-06T00:45:11.222Z,59.53
2019-04-06T00:47:42.734Z,59.17
2019-04-06T00:50:14.681Z,57.60
2019-04-06T00:52:46.147Z,62.07
2019-04-06T00:55:17.746Z,55.80
2019-04-06T00:57:49.304Z,58.60
2019-04-06T01:00:20.889Z,59.20
2019-04-06T01:02:52.376Z,57.30
2019-04-06T01:05:23.916Z,59.67
2019-04-06T01:07:55.476Z,57.93
2019-04-06T01:10:27.044Z,58.33
2019-04-06T01:12:58.775Z,57.47
2019-04-06T01:15:30.400Z,58.80
2019-04-06T01:18:02.839Z,57.37
2019-04-06T01:20:34.401Z,57.07
2019-04-06T01:23:05.895Z,59.67
2019-04-06T01:25:37.512Z,60.37
2019-04-06T01:28:09.048Z,59.13
2019-04-06T01:30:40.597Z,57.83
2019-04-06T01:33:12.121Z,58.93
2019-04-06T01:35:43.598Z,62.30
2019-04-06T01:38:15.099Z,58.57
2019-04-06T01:40:46.710Z,61.47
2019-04-06T01:43:18.202Z,61.47
2019-04-06T01:45:49.682Z,62.43
2019-04-06T01:48:21.247Z,64.83
2019-04-06T01:50:52.816Z,60.57
2019-04-06T01:53:24.281Z,59.30
2019-04-06T01:55:55.807Z,58.47
2019-04-06T01:58:27.443Z,58.47
2019-04-06T02:01:13.675Z,58.87
2019-04-06T02:03:45.184Z,56.53
2019-04-06T02:06:16.703Z,59.17
2019-04-06T02:08:48.154Z,58.60
2019-04-06T02:11:19.679Z,56.80
2019-04-06T02:13:51.190Z,57.53
2019-04-06T02:16:22.710Z,58.57
2019-04-06T02:18:55.207Z,58.63
2019-04-06T02:21:26.685Z,56.87
2019-04-06T02:23:58.370Z,53.20
2019-04-06T02:26:31.211Z,55.27
2019-04-06T02:29:02.872Z,58.17
2019-04-06T02:31:59.506Z,58.30
2019-04-06T02:34:39.521Z,55.90
2019-04-06T02:37:32.715Z,61.77
2019-04-06T02:40:10.575Z,60.27
2019-04-06T02:42:51.585Z,56.70
2019-04-06T02:45:24.468Z,58.67
2019-04-06T02:47:56.270Z,57.70
2019-04-06T02:50:27.751Z,56.70
2019-04-06T02:52:59.230Z,54.40
2019-04-06T02:55:30.763Z,59.63
2019-04-06T02:58:03.470Z,58.57
2019-04-06T03:00:36.765Z,57.23
2019-04-06T03:03:08.478Z,61.20
2019-04-06T03:05:39.943Z,58.47
2019-04-06T03:08:11.532Z,59.47
2019-04-06T03:10:42.981Z,63.63
2019-04-06T03:13:14.695Z,60.03
2019-04-06T03:15:46.286Z,62.73
2019-04-06T03:18:17.777Z,57.70
2019-04-06T03:20:49.524Z,62.80
2019-04-06T03:23:24.290Z,58.27
2019-04-06T03:25:54.412Z,62.10
2019-04-06T03:28:26.227Z,60.60
2019-04-06T03:30:57.872Z,61.90
2019-04-06T03:33:29.441Z,63.20
2019-04-06T03:36:01.080Z,56.90
2019-04-06T03:38:32.574Z,59.13
2019-04-06T03:41:04.182Z,61.93
2019-04-06T03:43:35.689Z,58.90
2019-04-06T03:46:07.225Z,60.10
2019-04-06T03:48:38.687Z,61.37
2019-04-06T03:51:10.206Z,60.40
2019-04-06T03:53:42.294Z,57.60
2019-04-06T03:56:13.725Z,64.63
2019-04-06T03:58:45.212Z,58.60
2019-04-06T04:01:16.646Z,60.20
2019-04-06T04:03:48.215Z,60.00
2019-04-06T04:06:19.823Z,59.07
2019-04-06T04:08:51.437Z,59.60
2019-04-06T04:11:22.867Z,60.87
2019-04-06T04:13:54.324Z,59.90
2019-04-06T04:16:25.747Z,56.20
2019-04-06T04:18:58.321Z,56.87
2019-04-06T04:21:29.807Z,64.87
2019-04-06T04:24:01.274Z,62.07
2019-04-06T04:26:32.732Z,57.60
2019-04-06T04:29:04.295Z,59.93
2019-04-06T04:31:35.857Z,59.43
2019-04-06T04:34:08.397Z,59.87
2019-04-06T04:36:40.236Z,58.50
2019-04-06T04:39:11.682Z,59.43
2019-04-06T04:41:43.133Z,60.30
2019-04-06T04:44:14.612Z,60.57
2019-04-06T04:46:46.319Z,57.47
2019-04-06T04:49:18.283Z,60.97
2019-04-06T04:51:50.210Z,59.87
2019-04-06T04:54:21.679Z,59.70
2019-04-06T04:56:53.167Z,64.27
2019-04-06T04:59:24.598Z,61.53
2019-04-06T05:01:56.078Z,60.33
2019-04-06T05:04:27.580Z,66.43
2019-04-06T05:06:58.962Z,65.13
2019-04-06T05:09:30.399Z,65.60
2019-04-06T05:12:02.033Z,65.30
2019-04-06T05:15:04.557Z,63.13
2019-04-06T05:17:36.262Z,66.97
2019-04-06T05:20:10.894Z,66.93
2019-04-06T05:22:42.416Z,71.30
2019-04-06T05:25:14.220Z,72.20
2019-04-06T05:27:51.800Z,66.37
2019-04-06T05:30:19.118Z,69.90
2019-04-06T05:32:50.714Z,71.63
2019-04-06T05:35:22.408Z,75.43
2019-04-06T05:37:53.916Z,79.30
2019-04-06T05:40:25.470Z,73.80
2019-04-06T05:42:57.592Z,76.90
2019-04-06T05:45:29.225Z,79.73
2019-04-06T05:48:00.654Z,82.13
2019-04-06T05:50:32.071Z,82.20
2019-04-06T05:53:03.519Z,78.30
2019-04-06T05:55:34.950Z,86.90
2019-04-06T05:58:09.792Z,91.47
2019-04-06T06:00:41.053Z,92.33
2019-04-06T06:03:12.611Z,98.07
2019-04-06T06:05:44.109Z,93.73
2019-04-06T06:08:15.594Z,91.23
2019-04-06T06:10:47.032Z,93.40
2019-04-06T06:13:18.556Z,94.57
2019-04-06T06:15:49.996Z,96.77
2019-04-06T06:18:27.115Z,96.73
2019-04-06T06:20:55.697Z,96.57
2019-04-06T06:23:27.370Z,98.37
2019-04-06T06:25:59.083Z,94.70
2019-04-06T06:28:30.440Z,93.50
2019-04-06T06:31:01.898Z,100.10
2019-04-06T06:33:36.182Z,96.93
2019-04-06T06:36:07.816Z,97.00
2019-04-06T06:38:39.501Z,88.70
2019-04-06T06:41:11.055Z,96.27
2019-04-06T06:43:42.524Z,95.97
2019-04-06T06:46:14.087Z,88.30
2019-04-06T06:48:45.576Z,95.03
2019-04-06T06:51:18.029Z,94.97
2019-04-06T06:53:49.458Z,89.17
2019-04-06T06:56:20.947Z,97.63
2019-04-06T06:58:52.338Z,93.10
2019-04-06T07:01:23.837Z,90.37
2019-04-06T07:03:55.319Z,89.63
2019-04-06T07:06:27.229Z,87.87
2019-04-06T07:08:58.766Z,87.40
2019-04-06T07:11:30.195Z,90.47
2019-04-06T07:14:01.737Z,89.57
2019-04-06T07:16:33.494Z,85.00
2019-04-06T07:19:04.948Z,86.53
2019-04-06T07:21:36.727Z,87.90
2019-04-06T07:24:08.284Z,83.97
2019-04-06T07:26:41.544Z,84.03
2019-04-06T07:29:13.118Z,79.40
2019-04-06T07:31:45.007Z,84.73
2019-04-06T07:34:17.694Z,78.53
2019-04-06T07:36:49.121Z,81.67
2019-04-06T07:39:20.734Z,83.70
2019-04-06T07:41:52.204Z,81.27
2019-04-06T07:44:23.809Z,80.83
2019-04-06T07:46:56.904Z,78.10
2019-04-06T07:49:28.567Z,83.93
2019-04-06T07:52:00.049Z,76.60
2019-04-06T07:54:31.600Z,73.90
2019-04-06T07:57:03.266Z,74.17
2019-04-06T07:59:34.916Z,69.13
2019-04-06T08:02:06.625Z,75.43
2019-04-06T08:04:39.859Z,72.47
2019-04-06T08:07:11.366Z,68.17
2019-04-06T08:09:42.904Z,70.77
2019-04-06T08:12:14.389Z,64.50
2019-04-06T08:14:46.013Z,68.00
2019-04-06T08:17:17.768Z,68.30
2019-04-06T08:19:49.727Z,75.77
2019-04-06T08:22:21.405Z,74.00
2019-04-06T08:24:54.023Z,70.60
2019-04-06T08:27:32.989Z,69.10
2019-04-06T08:30:05.697Z,69.63
2019-04-06T08:32:37.365Z,65.40
2019-04-06T08:35:10.085Z,65.77
2019-04-06T08:37:41.922Z,66.73
2019-04-06T08:40:14.559Z,63.40
2019-04-06T08:42:46.379Z,68.77
2019-04-06T08:45:18.278Z,66.93
2019-04-06T08:47:49.730Z,66.17
2019-04-06T08:50:21.167Z,61.83
2019-04-06T08:52:52.638Z,61.67
2019-04-06T08:55:24.433Z,62.37
2019-04-06T08:57:55.896Z,61.20
2019-04-06T09:00:27.577Z,61.80
2019-04-06T09:02:59.346Z,62.30
2019-04-06T09:05:31.169Z,60.80
2019-04-06T09:08:03.980Z,57.23
2019-04-06T09:10:35.456Z,61.87
2019-04-06T09:13:08.468Z,62.83
2019-04-06T09:15:40.357Z,62.07
2019-04-06T09:18:11.979Z,59.07
2019-04-06T09:20:44.146Z,55.00
2019-04-06T09:23:15.855Z,56.07
2019-04-06T09:25:47.455Z,56.00
2019-04-06T09:28:19.416Z,57.60
2019-04-06T09:30:51.241Z,55.07
2019-04-06T09:33:22.973Z,57.27
2019-04-06T09:35:54.451Z,53.33
2019-04-06T09:38:25.929Z,57.20
2019-04-06T09:40:58.025Z,52.87
2019-04-06T09:43:29.802Z,54.27
2019-04-06T09:46:29.379Z,57.17
2019-04-06T09:49:16.362Z,56.40
2019-04-06T09:52:22.441Z,55.00
2019-04-06T09:55:16.167Z,55.67
2019-04-06T09:58:03.428Z,51.87
2019-04-06T10:00:59.902Z,57.13
2019-04-06T10:03:53.244Z,54.03
2019-04-06T10:06:43.746Z,52.03
2019-04-06T10:09:32.870Z,50.27
2019-04-06T10:12:19.622Z,51.37
2019-04-06T10:15:13.185Z,53.23
2019-04-06T10:18:01.720Z,53.47
2019-04-06T10:20:55.123Z,47.43
2019-04-06T10:23:44.418Z,50.07
2019-04-06T10:26:33.983Z,50.90
2019-04-06T10:29:24.496Z,49.73
2019-04-06T10:32:23.925Z,51.60
2019-04-06T10:35:20.823Z,50.20
2019-04-06T10:38:12.306Z,46.90
2019-04-06T10:41:07.715Z,47.17
2019-04-06T10:44:04.166Z,47.03
2019-04-06T10:46:49.172Z,46.87
2019-04-06T10:49:39.530Z,47.40
2019-04-06T10:52:28.670Z,48.80
2019-04-06T10:55:11.761Z,48.60
2019-04-06T10:57:57.634Z,44.17
2019-04-06T11:00:48.021Z,44.77
2019-04-06T11:03:25.609Z,42.43
2019-04-06T11:06:05.751Z,43.80
2019-04-06T11:08:56.071Z,40.83
2019-04-06T11:11:49.467Z,39.40
2019-04-06T11:14:45.783Z,41.27
2019-04-06T11:17:55.400Z,41.13
2019-04-06T11:20:48.583Z,40.73
2019-04-06T11:23:35.279Z,39.43
2019-04-06T11:26:36.653Z,33.00
2019-04-06T11:29:26.396Z,34.67
2019-04-06T11:32:14.637Z,33.13
2019-04-06T11:35:03.785Z,30.93
2019-04-06T11:38:09.627Z,32.27
2019-04-06T11:40:55.508Z,32.13
2019-04-06T11:43:43.896Z,30.53
2019-04-06T11:46:43.418Z,30.93
2019-04-06T11:49:32.705Z,31.40
2019-04-06T11:52:15.457Z,32.80
2019-04-06T11:54:59.846Z,33.33
2019-04-06T11:57:53.031Z,30.37
2019-04-06T12:00:43.896Z,28.70
2019-04-06T12:03:30.406Z,40.20
2019-04-06T12:06:24.928Z,34.10
2019-04-06T12:09:15.642Z,32.43
2019-04-06T12:12:08.814Z,31.63
2019-04-06T12:14:56.783Z,31.70
2019-04-06T12:17:50.885Z,29.60
2019-04-06T12:20:35.338Z,29.20
2019-04-06T12:23:37.784Z,29.10
2019-04-06T12:26:26.069Z,29.40
2019-04-06T12:29:16.604Z,32.33
2019-04-06T12:32:11.101Z,32.33
2019-04-06T12:35:19.999Z,31.27
2019-04-06T12:37:59.447Z,29.60
2019-04-06T12:40:50.169Z,31.70
2019-04-06T12:43:39.693Z,31.90
2019-04-06T12:46:33.137Z,32.27
2019-04-06T12:49:23.490Z,34.83
2019-04-06T12:52:14.063Z,32.30
2019-04-06T12:55:14.126Z,34.27
2019-04-06T12:58:06.370Z,34.40
2019-04-06T13:00:59.760Z,31.40
2019-04-06T13:03:53.244Z,31.70
2019-04-06T13:06:44.169Z,33.13
2019-04-06T13:09:37.638Z,33.03
2019-04-06T13:12:28.524Z,35.13
2019-04-06T13:15:20.937Z,34.77
2019-04-06T13:18:15.124Z,31.63
2019-04-06T13:21:04.503Z,31.43
2019-04-06T13:24:04.577Z,27.90
2019-04-06T13:26:58.396Z,26.30
2019-04-06T13:29:49.505Z,28.13
2019-04-06T13:32:33.190Z,25.67
2019-04-06T13:35:26.934Z,25.20
2019-04-06T13:38:15.556Z,26.23
2019-04-06T13:41:17.031Z,26.37
2019-04-06T13:43:59.614Z,25.77
2019-04-06T13:47:02.668Z,23.90
2019-04-06T13:49:53.276Z,23.20
2019-04-06T13:52:42.258Z,23.50
2019-04-06T13:55:47.987Z,21.53
2019-04-06T13:58:35.668Z,23.17
2019-04-06T14:01:28.902Z,20.90
2019-04-06T14:04:18.062Z,22.07
2019-04-06T14:07:08.530Z,22.13
2019-04-06T14:09:46.200Z,22.27
2019-04-06T14:12:35.833Z,21.67
2019-04-06T14:15:29.590Z,22.30
2019-04-06T14:18:20.438Z,22.10
2019-04-06T14:21:13.930Z,20.70
2019-04-06T14:23:55.389Z,20.43
2019-04-06T14:26:37.892Z,20.20
2019-04-06T14:29:22.865Z,21.30
2019-04-06T14:32:26.410Z,20.33
2019-04-06T14:35:08.248Z,19.60
2019-04-06T14:37:57.850Z,19.57
2019-04-06T14:40:47.427Z,19.47
2019-04-06T14:43:37.851Z,19.77
2019-04-06T14:46:27.518Z,21.63
2019-04-06T14:49:32.927Z,21.40
2019-04-06T14:52:15.672Z,19.50
2019-04-06T14:55:02.546Z,18.83
2019-04-06T14:57:48.453Z,19.57
2019-04-06T15:00:41.677Z,18.63
2019-04-06T15:03:34.941Z,16.83
2019-04-06T15:06:39.054Z,18.57
2019-04-06T15:09:36.414Z,20.10
2019-04-06T15:12:26.992Z,19.37
2019-04-06T15:15:16.552Z,21.70
2019-04-06T15:18:14.106Z,24.80
2019-04-06T15:21:03.480Z,28.17
2019-04-06T15:23:54.092Z,26.90
2019-04-06T15:26:32.242Z,30.80
2019-04-06T15:29:23.063Z,31.33
2019-04-06T15:32:20.185Z,33.07
2019-04-06T15:35:25.940Z,31.97
2019-04-06T15:38:15.434Z,30.13
2019-04-06T15:41:27.991Z,30.40
2019-04-06T15:44:27.970Z,32.97
2019-04-06T15:47:14.630Z,32.37
2019-04-06T15:50:09.770Z,26.07
2019-04-06T15:52:52.953Z,32.43
2019-04-06T15:58:42.657Z,31.17
2019-04-06T16:01:27.605Z,32.03
2019-04-06T16:04:25.121Z,32.57
2019-04-06T16:07:07.457Z,32.57
2019-04-06T16:09:48.759Z,32.33
2019-04-06T16:12:34.849Z,33.27
2019-04-06T16:15:24.337Z,34.00
2019-04-06T16:18:21.145Z,36.27
2019-04-06T16:21:18.023Z,32.67
2019-04-06T16:24:04.805Z,35.60
2019-04-06T16:27:01.409Z,34.37
2019-04-06T16:29:55.021Z,33.70
2019-04-06T16:32:44.389Z,35.50
2019-04-06T16:35:44.079Z,33.40
2019-04-06T16:38:22.547Z,31.93
2019-04-06T16:41:13.681Z,34.33
2019-04-06T16:43:57.278Z,35.60
2019-04-06T16:46:35.820Z,33.20
2019-04-06T16:49:21.944Z,33.83
2019-04-06T16:52:10.983Z,34.10
2019-04-06T16:54:52.984Z,33.33
2019-04-06T16:57:50.517Z,34.80
2019-04-06T17:00:44.195Z,33.80
2019-04-06T17:03:33.773Z,33.60
2019-04-06T17:06:25.867Z,32.20
2019-04-06T17:09:15.707Z,32.00
2019-04-06T17:12:12.524Z,33.37
2019-04-06T17:15:04.567Z,34.50
2019-04-06T17:17:44.414Z,35.20
2019-04-06T17:20:34.156Z,35.93
2019-04-06T17:23:26.674Z,34.77
2019-04-06T17:26:25.376Z,34.20
2019-04-06T17:29:25.733Z,37.83
2019-04-06T17:32:06.613Z,35.40
2019-04-06T17:35:00.616Z,36.43
2019-04-06T17:37:57.887Z,34.67
2019-04-06T17:40:52.473Z,36.10
2019-04-06T17:43:43.803Z,36.57
2019-04-06T17:46:33.699Z,36.87
2019-04-06T17:49:33.760Z,37.07
2019-04-06T17:52:22.285Z,37.07
2019-04-06T17:55:20.671Z,48.33
2019-04-06T17:58:02.733Z,41.47
2019-04-06T18:00:55.273Z,37.53
2019-04-06T18:03:52.119Z,38.07
2019-04-06T18:06:42.899Z,37.97
2019-04-06T18:09:23.439Z,38.97
2019-04-06T18:12:13.952Z,37.67
2019-04-06T18:14:46.186Z,36.63
2019-04-06T18:17:17.994Z,36.77
2019-04-06T18:19:50.854Z,37.20
2019-04-06T18:22:22.995Z,38.57
2019-04-06T18:24:54.906Z,36.77
2019-04-06T18:27:26.881Z,38.83
2019-04-06T18:29:58.596Z,39.87
2019-04-06T18:32:37.456Z,39.40
2019-04-06T18:35:10.805Z,40.87
2019-04-06T18:37:54.953Z,40.43
2019-04-06T18:40:28.226Z,38.70
2019-04-06T18:42:59.863Z,39.97
2019-04-06T18:45:33.849Z,39.03
2019-04-06T18:48:05.403Z,40.73
2019-04-06T18:50:38.951Z,41.13
2019-04-06T18:53:11.472Z,42.13
2019-04-06T18:55:43.409Z,38.60
2019-04-06T18:58:16.155Z,43.17
2019-04-06T19:00:48.530Z,44.47
2019-04-06T19:03:20.888Z,43.10
2019-04-06T19:05:52.621Z,41.47
2019-04-06T19:08:24.312Z,43.60
2019-04-06T19:10:56.736Z,40.77
2019-04-06T19:13:28.682Z,43.77
2019-04-06T19:16:00.341Z,41.20
2019-04-06T19:18:32.047Z,44.37
2019-04-06T19:21:03.987Z,39.97
2019-04-06T19:23:35.629Z,41.00
2019-04-06T19:26:07.416Z,38.47
2019-04-06T19:28:39.291Z,41.73
2019-04-06T19:31:11.310Z,40.27
2019-04-06T19:33:43.249Z,40.57
2019-04-06T19:36:14.824Z,41.37
2019-04-06T19:38:46.417Z,41.33
2019-04-06T19:41:17.905Z,41.00
2019-04-06T19:43:49.985Z,41.27
2019-04-06T19:46:21.980Z,41.17
2019-04-06T19:48:53.851Z,41.47
2019-04-06T19:51:26.451Z,43.43
2019-04-06T19:53:58.181Z,45.27
2019-04-06T19:56:30.760Z,41.87
2019-04-06T19:59:02.897Z,39.90
2019-04-06T20:01:34.777Z,44.40
2019-04-06T20:04:06.296Z,43.73
2019-04-06T20:06:37.760Z,45.50
2019-04-06T20:09:09.855Z,43.90
2019-04-06T20:11:42.177Z,43.80
2019-04-06T20:14:14.531Z,43.80
2019-04-06T20:16:46.480Z,42.73
2019-04-06T20:19:18.204Z,42.33
2019-04-06T20:21:50.903Z,42.07
2019-04-06T20:24:23.559Z,44.40
2019-04-06T20:26:55.614Z,44.07
2019-04-06T20:29:27.672Z,44.00
2019-04-06T20:32:00.223Z,42.47
2019-04-06T20:34:33.337Z,46.37
2019-04-06T20:37:04.892Z,42.80
2019-04-06T20:39:37.521Z,46.07
2019-04-06T20:42:08.982Z,47.47
2019-04-06T20:44:40.949Z,46.50
2019-04-06T20:47:14.204Z,46.03
2019-04-06T20:49:46.310Z,47.03
2019-04-06T20:52:18.316Z,45.63
2019-04-06T20:54:50.066Z,46.03
2019-04-06T20:57:21.908Z,47.60
2019-04-06T20:59:55.058Z,50.13
2019-04-06T21:02:26.909Z,48.70
2019-04-06T21:04:58.536Z,46.07
2019-04-06T21:07:31.170Z,47.17
2019-04-06T21:10:03.206Z,47.87
2019-04-06T21:12:35.202Z,50.73
2019-04-06T21:15:16.923Z,50.07
2019-04-06T21:17:42.711Z,49.13
2019-04-06T21:20:15.277Z,49.67
2019-04-06T21:22:47.355Z,50.43
2019-04-06T21:25:19.101Z,49.23
2019-04-06T21:27:51.372Z,49.53
2019-04-06T21:30:23.546Z,52.00
2019-04-06T21:32:55.172Z,51.10
2019-04-06T21:35:26.975Z,49.80
2019-04-06T21:37:58.535Z,47.97
2019-04-06T21:40:30.648Z,49.20
2019-04-06T21:43:02.402Z,49.80
2019-04-06T21:45:34.433Z,49.30
2019-04-06T21:48:09.459Z,49.93
2019-04-06T21:50:41.041Z,48.77
2019-04-06T21:53:12.621Z,47.13
2019-04-06T21:55:44.122Z,46.17
2019-04-06T21:58:16.521Z,50.70
2019-04-06T22:00:57.953Z,52.40
2019-04-06T22:03:29.845Z,48.53
2019-04-06T22:06:01.422Z,49.27
2019-04-06T22:08:32.987Z,50.20
2019-04-06T22:11:05.087Z,48.87
2019-04-06T22:13:36.612Z,47.80
2019-04-06T22:16:08.613Z,50.83
2019-04-06T22:18:40.682Z,48.20
2019-04-06T22:21:12.570Z,50.87
2019-04-06T22:23:45.304Z,49.53
2019-04-06T22:26:19.728Z,51.97
2019-04-06T22:28:51.248Z,50.57
2019-04-06T22:31:22.948Z,51.73
2019-04-06T22:33:54.365Z,51.20
2019-04-06T22:36:25.951Z,49.73
2019-04-06T22:38:57.832Z,53.30
2019-04-06T22:41:29.829Z,49.70
2019-04-06T22:44:01.818Z,51.13
2019-04-06T22:46:35.332Z,49.63
2019-04-06T22:49:06.896Z,51.63
2019-04-06T22:51:38.959Z,49.60
2019-04-06T22:54:10.811Z,50.43
2019-04-06T22:56:46.797Z,51.50
2019-04-06T22:59:18.882Z,53.07
2019-04-06T23:01:53.353Z,51.53
2019-04-06T23:04:47.351Z,51.07
2019-04-06T23:07:13.223Z,52.10
2019-04-06T23:09:45.104Z,51.40
2019-04-06T23:12:16.755Z,51.53
2019-04-06T23:14:48.895Z,52.63
2019-04-06T23:17:20.459Z,54.90
2019-04-06T23:19:52.341Z,53.70
2019-04-06T23:22:23.876Z,54.13
2019-04-06T23:24:56.333Z,54.70
2019-04-06T23:27:27.918Z,51.00
2019-04-06T23:30:02.411Z,56.77
2019-04-06T23:32:34.637Z,53.67
2019-04-06T23:35:07.039Z,54.90
2019-04-06T23:37:40.356Z,52.83
2019-04-06T23:40:12.311Z,54.53
2019-04-06T23:42:43.799Z,55.20
2019-04-06T23:45:15.333Z,54.30
2019-04-06T23:47:47.027Z,50.67
2019-04-06T23:50:18.782Z,52.37
2019-04-06T23:52:53.071Z,57.63
2019-04-06T23:55:24.800Z,52.27
2019-04-06T23:57:56.423Z,54.73
